Time;durP1;ratioP1;P1;durP2;ratioP2;P2;SDS_P1;SDS_P2;PMS_P1;PMS_P2;Temp;Humidity;BMP_temperature;BMP_pressure;BME280_temperature;BME280_humidity;BME280_pressure;Samples;Min_cycle;Max_cycle;Signal;HPM_P1;HPM_P2
2022/06/20 00:02:20;;;;;;;24.00;14.63;;;;;;;23.85;100.00;95573.75;4990732;28;20072;-48
2022/06/20 00:04:49;;;;;;;22.90;14.35;;;;;;;23.66;100.00;95573.19;4991393;28;20457;-49
2022/06/20 00:07:19;;;;;;;24.47;14.07;;;;;;;23.60;100.00;95578.75;4985700;28;20065;-49
2022/06/20 00:09:48;;;;;;;20.95;14.38;;;;;;;23.46;100.00;95576.41;4990040;28;20062;-47
2022/06/20 00:12:21;;;;;;;22.05;13.38;;;;;;;23.65;100.00;95582.34;5017158;28;20536;-49
2022/06/20 00:14:52;;;;;;;21.70;12.48;;;;;;;23.64;100.00;95579.88;4972445;28;20070;-48
2022/06/20 00:17:20;;;;;;;20.55;12.25;;;;;;;23.28;100.00;95583.94;4990052;28;20100;-48
2022/06/20 00:19:49;;;;;;;26.05;12.80;;;;;;;23.04;100.00;95584.09;4985936;28;20450;-49
2022/06/20 00:22:18;;;;;;;22.13;12.63;;;;;;;22.92;100.00;95580.66;4989709;28;20078;-52
2022/06/20 00:24:46;;;;;;;19.92;13.73;;;;;;;22.85;100.00;95577.28;4990768;28;20039;-51
2022/06/20 00:27:14;;;;;;;26.02;15.05;;;;;;;22.98;100.00;95582.38;4989986;28;20081;-48
2022/06/20 00:29:50;;;;;;;23.23;14.77;;;;;;;23.02;100.00;95571.97;4990586;28;20065;-46
2022/06/20 00:32:19;;;;;;;24.75;14.23;;;;;;;22.85;100.00;95572.75;4989293;28;20476;-47
2022/06/20 00:34:47;;;;;;;26.42;14.90;;;;;;;22.90;100.00;95572.03;4974659;28;20074;-50
2022/06/20 00:37:18;;;;;;;22.95;13.98;;;;;;;22.87;100.00;95572.50;4981497;28;20066;-48
2022/06/20 00:39:47;;;;;;;19.92;13.05;;;;;;;22.92;100.00;95564.53;4988828;28;20523;-47
2022/06/20 00:42:16;;;;;;;21.48;13.70;;;;;;;23.08;100.00;95569.09;4989001;28;20081;-48
2022/06/20 00:44:48;;;;;;;25.05;13.38;;;;;;;23.15;100.00;95577.00;4990429;28;20082;-47
2022/06/20 00:47:19;;;;;;;23.88;13.77;;;;;;;22.92;100.00;95567.22;4989488;28;20046;-49
2022/06/20 00:49:52;;;;;;;23.35;14.15;;;;;;;22.87;100.00;95575.19;4989383;28;20062;-46
2022/06/20 00:52:24;;;;;;;27.10;13.63;;;;;;;22.81;100.00;95568.91;4989198;28;20084;-51
2022/06/20 00:54:57;;;;;;;26.02;14.32;;;;;;;22.87;100.00;95567.94;4989013;28;20438;-48
2022/06/20 00:57:29;;;;;;;21.30;14.18;;;;;;;22.71;100.00;95568.72;4988548;28;20077;-49
2022/06/20 01:00:06;;;;;;;28.15;15.13;;;;;;;22.66;100.00;95563.28;4990146;28;20057;-49
2022/06/20 01:02:36;;;;;;;26.00;15.02;;;;;;;22.77;100.00;95559.69;4989353;28;20078;-46
2022/06/20 01:05:08;;;;;;;26.65;14.98;;;;;;;22.59;100.00;95563.44;4989670;28;20065;-48
2022/06/20 01:07:41;;;;;;;23.15;14.90;;;;;;;22.56;100.00;95569.28;4989576;28;20445;-46
2022/06/20 01:10:11;;;;;;;29.80;15.32;;;;;;;22.58;100.00;95569.88;4989153;28;20404;-55
2022/06/20 01:12:48;;;;;;;23.80;14.95;;;;;;;22.72;100.00;95578.44;4979868;28;20066;-49
2022/06/20 01:15:21;;;;;;;25.60;15.18;;;;;;;22.77;100.00;95569.66;4971793;28;20069;-49
2022/06/20 01:17:50;;;;;;;27.38;14.85;;;;;;;22.68;100.00;95563.88;4970836;28;20617;-49
2022/06/20 01:20:22;;;;;;;22.98;14.38;;;;;;;22.48;100.00;95567.81;4989460;28;20073;-46
2022/06/20 01:22:59;;;;;;;24.55;14.10;;;;;;;22.61;100.00;95563.19;4989440;28;20077;-50
2022/06/20 01:25:37;;;;;;;23.25;14.10;;;;;;;22.69;100.00;95566.28;4989075;28;20445;-51
2022/06/20 01:28:09;;;;;;;22.70;13.05;;;;;;;22.46;100.00;95566.41;4986043;28;20073;-52
2022/06/20 01:30:42;;;;;;;25.92;13.82;;;;;;;22.44;100.00;95557.81;4988755;28;20516;-49
2022/06/20 01:33:11;;;;;;;23.40;13.80;;;;;;;22.23;100.00;95567.34;4986913;28;20058;-48
2022/06/20 01:38:29;;;;;;;27.20;15.07;;;;;;;22.58;100.00;95577.13;4987361;28;20336;-49
2022/06/20 01:43:44;;;;;;;27.70;15.13;;;;;;;22.40;100.00;95570.91;4987021;28;20065;-47
2022/06/20 01:46:14;;;;;;;23.08;15.57;;;;;;;22.52;100.00;95566.28;4988247;28;20081;-46
2022/06/20 01:48:46;;;;;;;28.02;15.85;;;;;;;22.60;100.00;95565.06;4988927;28;20070;-47
2022/06/20 01:51:18;;;;;;;25.85;16.40;;;;;;;22.65;100.00;95558.97;4986776;28;20054;-50
2022/06/20 01:53:48;;;;;;;27.10;16.63;;;;;;;22.75;100.00;95561.84;4988742;28;20081;-49
2022/06/20 01:56:17;;;;;;;24.50;15.50;;;;;;;22.87;100.00;95556.38;4988528;28;20084;-49
2022/06/20 01:58:50;;;;;;;25.27;16.67;;;;;;;22.70;100.00;95562.53;4988753;28;20500;-52
2022/06/20 02:01:19;;;;;;;24.33;15.93;;;;;;;22.34;100.00;95571.03;4987756;28;20073;-53
2022/06/20 02:03:48;;;;;;;28.42;15.85;;;;;;;22.64;100.00;95568.91;4989819;28;20069;-49
2022/06/20 02:06:17;;;;;;;26.10;15.93;;;;;;;22.66;100.00;95561.41;4987499;28;20680;-51
2022/06/20 02:08:50;;;;;;;23.27;15.32;;;;;;;22.71;100.00;95561.50;4988624;28;20074;-46
2022/06/20 02:11:22;;;;;;;20.80;15.20;;;;;;;22.49;100.00;95563.25;4985829;28;20484;-46
2022/06/20 02:13:56;;;;;;;26.42;15.35;;;;;;;22.46;100.00;95563.72;4983833;28;20066;-47
2022/06/20 02:16:25;;;;;;;26.17;15.55;;;;;;;22.23;100.00;95564.66;4987717;28;20078;-48
2022/06/20 02:18:55;;;;;;;24.67;15.88;;;;;;;22.46;100.00;95561.03;4987930;28;20066;-52
2022/06/20 02:21:25;;;;;;;23.77;14.88;;;;;;;22.48;100.00;95565.13;4987132;28;20068;-44
2022/06/20 02:23:57;;;;;;;20.40;14.85;;;;;;;22.25;100.00;95574.09;4987930;28;20088;-49
2022/06/20 02:26:25;;;;;;;24.52;15.45;;;;;;;22.51;100.00;95567.34;4987816;28;20090;-50
2022/06/20 02:29:00;;;;;;;24.83;15.30;;;;;;;22.48;100.00;95567.81;4988091;28;20054;-51
2022/06/20 02:31:28;;;;;;;24.10;16.10;;;;;;;22.55;100.00;95582.97;4974274;28;20065;-52
2022/06/20 02:33:57;;;;;;;24.40;14.98;;;;;;;22.30;100.00;95577.94;4974345;28;20066;-51
2022/06/20 02:36:25;;;;;;;27.02;14.85;;;;;;;22.45;100.00;95576.34;4973425;28;20054;-53
2022/06/20 02:38:54;;;;;;;22.75;14.27;;;;;;;22.94;100.00;95573.19;4985580;28;20528;-48
2022/06/20 02:41:24;;;;;;;21.65;13.95;;;;;;;22.48;100.00;95583.94;4983711;28;20553;-48
2022/06/20 02:43:58;;;;;;;21.23;14.00;;;;;;;22.56;100.00;95566.59;4984275;28;20081;-44
2022/06/20 02:46:28;;;;;;;24.90;14.43;;;;;;;22.56;100.00;95573.84;4984673;28;20084;-53
2022/06/20 02:48:57;;;;;;;25.67;13.70;;;;;;;22.55;100.00;95578.41;4984982;28;20080;-47
2022/06/20 02:51:29;;;;;;;30.02;13.75;;;;;;;22.54;100.00;95581.31;4982753;28;20085;-54
2022/06/20 02:53:59;;;;;;;25.10;13.57;;;;;;;22.59;100.00;95579.56;4985421;28;20085;-51
2022/06/20 02:56:32;;;;;;;20.88;12.98;;;;;;;22.52;100.00;95576.22;4983823;28;20474;-57
2022/06/20 02:59:14;;;;;;;23.42;13.27;;;;;;;22.61;100.00;95568.56;4985704;28;20066;-53
2022/06/20 03:01:44;;;;;;;22.38;14.48;;;;;;;22.37;100.00;95576.75;4984979;28;20058;-47
2022/06/20 03:04:13;;;;;;;;;;;;;;;22.18;100.00;95575.31;4985569;28;20077;-47
2022/06/20 03:06:43;;;;;;;20.80;14.13;;;;;;;21.92;100.00;95577.47;4985977;28;19960;-51
2022/06/20 03:09:13;;;;;;;23.67;14.63;;;;;;;21.94;100.00;95578.03;4982609;28;20066;-53
2022/06/20 03:11:42;;;;;;;23.25;14.15;;;;;;;21.87;100.00;95581.91;4983347;28;20085;-53
2022/06/20 03:14:15;;;;;;;25.20;14.27;;;;;;;21.86;100.00;95573.03;4982442;28;20533;-49
2022/06/20 03:16:43;;;;;;;24.45;14.50;;;;;;;21.99;100.00;95569.28;4984781;28;20066;-46
2022/06/20 03:19:15;;;;;;;26.75;14.65;;;;;;;22.13;100.00;95573.31;4984981;28;20066;-46
2022/06/20 03:21:44;;;;;;;23.33;14.13;;;;;;;22.14;100.00;95566.06;4976485;28;20077;-48
2022/06/20 03:24:16;;;;;;;24.48;14.73;;;;;;;22.11;100.00;95572.72;4969162;28;20062;-45
2022/06/20 03:26:45;;;;;;;23.88;13.88;;;;;;;22.17;100.00;95581.75;4985699;28;20635;-50
2022/06/20 03:29:17;;;;;;;22.50;14.50;;;;;;;22.37;100.00;95584.00;4986154;28;20096;-57
2022/06/20 03:31:45;;;;;;;22.80;14.20;;;;;;;22.40;100.00;95587.03;4985733;28;20502;-50
2022/06/20 03:34:14;;;;;;;28.05;15.35;;;;;;;22.52;100.00;95585.09;4985902;28;20065;-51
2022/06/20 03:36:43;;;;;;;29.30;15.02;;;;;;;22.44;100.00;95579.28;4986815;28;20077;-45
2022/06/20 03:39:12;;;;;;;26.35;14.75;;;;;;;22.36;100.00;95580.47;4985336;28;20061;-50
2022/06/20 03:41:40;;;;;;;28.10;14.98;;;;;;;22.35;100.00;95576.16;4985578;28;20093;-51
2022/06/20 03:44:14;;;;;;;21.02;13.73;;;;;;;22.63;100.00;95571.81;4986837;28;20077;-50
2022/06/20 03:46:46;;;;;;;27.23;14.70;;;;;;;22.84;100.00;95579.19;4984966;28;20077;-50
2022/06/20 03:49:18;;;;;;;23.83;13.73;;;;;;;23.00;100.00;95574.09;4982983;28;20058;-48
2022/06/20 03:51:49;;;;;;;19.75;14.27;;;;;;;23.11;100.00;95579.38;4987358;28;20088;-50
2022/06/20 03:54:21;;;;;;;23.90;13.55;;;;;;;23.52;100.00;95581.88;4987002;28;20605;-46
2022/06/20 03:56:53;;;;;;;29.02;13.95;;;;;;;23.66;100.00;95583.13;4985159;28;20078;-47
2022/06/20 03:59:24;;;;;;;22.20;13.50;;;;;;;24.22;100.00;95583.88;4987149;28;20086;-58
2022/06/20 04:01:58;;;;;;;22.88;13.20;;;;;;;24.58;100.00;95579.72;4985915;28;20062;-51
2022/06/20 04:04:30;;;;;;;20.23;12.65;;;;;;;24.94;100.00;95576.53;4986318;28;20078;-48
2022/06/20 04:07:03;;;;;;;22.77;12.25;;;;;;;25.44;100.00;95575.31;4985701;28;20462;-45
2022/06/20 04:12:23;;;;;;;23.27;11.93;;;;;;;26.17;100.00;95583.56;5015229;28;20762;-51
2022/06/20 04:14:56;;;;;;;26.33;11.75;;;;;;;26.70;100.00;95586.97;4985524;28;20085;-49
2022/06/20 04:20:22;;;;;;;21.08;12.10;;;;;;;26.71;100.00;95584.00;4962071;28;20110;-53
2022/06/20 04:22:53;;;;;;;25.08;11.35;;;;;;;26.98;100.00;95591.06;4981972;28;20050;-51
2022/06/20 04:25:31;;;;;;;26.13;12.75;;;;;;;27.33;100.00;95594.91;4983794;28;20077;-53
2022/06/20 04:28:05;;;;;;;21.85;11.40;;;;;;;27.23;100.00;95595.72;4984910;28;20061;-52
2022/06/20 04:30:38;;;;;;;26.35;12.32;;;;;;;26.54;100.00;95605.06;4984116;28;20555;-48
2022/06/20 04:33:13;;;;;;;25.52;15.93;;;;;;;26.39;100.00;95602.28;4986849;28;20074;-54
2022/06/20 04:35:45;;;;;;;20.95;11.45;;;;;;;27.13;100.00;95599.22;4988857;28;20076;-52
2022/06/20 04:38:16;;;;;;;21.98;10.80;;;;;;;27.09;100.00;95605.44;4990905;28;20362;-46
2022/06/20 04:40:47;;;;;;;25.48;11.00;;;;;;;26.41;100.00;95621.75;4983460;28;20073;-51
2022/06/20 04:43:19;;;;;;;24.60;10.77;;;;;;;26.21;100.00;95615.19;4984727;28;20059;-53
2022/06/20 04:45:52;;;;;;;20.13;11.32;;;;;;;26.45;100.00;95626.34;4992729;28;20073;-54
2022/06/20 04:48:23;;;;;;;24.05;11.13;;;;;;;26.67;100.00;95618.09;4991915;28;20458;-50
2022/06/20 04:50:54;;;;;;;23.85;11.13;;;;;;;26.97;100.00;95619.19;4991793;28;20525;-53
2022/06/20 04:53:24;;;;;;;23.90;11.52;;;;;;;27.50;100.00;95622.50;4992578;28;20886;-49
2022/06/20 04:55:54;;;;;;;;;;;;;;;27.83;100.00;95623.00;4992382;28;20161;-50
2022/06/20 04:58:26;;;;;;;20.27;10.87;;;;;;;27.71;100.00;95625.19;4991539;28;19965;-48
2022/06/20 05:00:54;;;;;;;18.92;11.00;;;;;;;27.88;100.00;95634.66;4992360;28;20430;-52
2022/06/20 05:03:28;;;;;;;18.95;10.88;;;;;;;27.95;100.00;95639.78;4992110;28;20062;-52
2022/06/20 05:05:59;;;;;;;24.77;10.55;;;;;;;27.43;100.00;95635.50;4992637;28;20077;-50
2022/06/20 05:08:31;;;;;;;16.50;10.38;;;;;;;27.35;100.00;95634.13;4992264;28;20078;-49
2022/06/20 05:11:03;;;;;;;33.00;11.15;;;;;;;26.74;100.00;95637.56;4991700;28;20073;-50
2022/06/20 05:13:37;;;;;;;24.25;10.75;;;;;;;26.26;100.00;95639.53;4990557;28;20090;-50
2022/06/20 05:16:06;;;;;;;22.38;10.85;;;;;;;26.18;100.00;95637.34;4991677;28;20062;-51
2022/06/20 05:18:40;;;;;;;16.23;9.93;;;;;;;25.83;100.00;95647.97;4991676;28;20050;-54
2022/06/20 05:21:12;;;;;;;21.15;9.98;;;;;;;25.76;100.00;95656.25;4991285;28;20524;-47
2022/06/20 05:23:42;;;;;;;20.67;10.68;;;;;;;25.64;100.00;95667.25;4991762;28;20444;-48
2022/06/20 05:26:15;;;;;;;19.10;9.80;;;;;;;25.28;100.00;95677.75;4991653;28;20053;-48
2022/06/20 05:28:46;;;;;;;20.38;11.13;;;;;;;25.18;100.00;95679.56;4991537;28;20077;-51
2022/06/20 05:31:17;;;;;;;21.70;10.43;;;;;;;25.11;100.00;95674.38;4991342;28;20146;-49
2022/06/20 05:33:52;;;;;;;20.08;11.15;;;;;;;25.51;100.00;95665.00;4991249;28;20080;-51
2022/06/20 05:36:23;;;;;;;20.58;11.27;;;;;;;25.89;100.00;95673.94;4991015;28;20088;-49
2022/06/20 05:38:56;;;;;;;21.15;10.90;;;;;;;25.47;100.00;95666.59;4981034;28;20549;-49
2022/06/20 05:41:24;;;;;;;23.08;12.63;;;;;;;25.99;100.00;95674.81;4991976;28;20457;-52
2022/06/20 05:43:53;;;;;;;18.70;11.15;;;;;;;25.88;100.00;95667.72;4991289;28;20069;-47
2022/06/20 05:46:25;;;;;;;24.10;11.02;;;;;;;25.99;100.00;95680.22;4989514;28;20068;-52
2022/06/20 05:48:57;;;;;;;21.80;11.13;;;;;;;26.79;100.00;95680.03;4990272;28;20058;-51
2022/06/20 05:51:27;;;;;;;19.00;11.13;;;;;;;26.50;100.00;95690.50;4990981;28;20446;-57
2022/06/20 05:53:55;;;;;;;;;;;;;;;26.83;100.00;95700.06;4991499;28;20103;-50
2022/06/20 05:56:27;;;;;;;19.50;10.10;;;;;;;26.49;100.00;95692.38;4990865;28;19964;-47
2022/06/20 05:58:56;;;;;;;19.08;10.75;;;;;;;26.81;100.00;95698.72;4990713;28;20062;-51
2022/06/20 06:01:30;;;;;;;21.35;10.77;;;;;;;27.21;100.00;95708.84;4990817;28;20434;-49
2022/06/20 06:04:05;;;;;;;17.88;9.95;;;;;;;27.20;100.00;95712.66;4990873;28;20076;-49
2022/06/20 06:06:39;;;;;;;19.75;10.55;;;;;;;26.91;100.00;95723.94;4990957;28;20058;-50
2022/06/20 06:09:13;;;;;;;20.73;10.68;;;;;;;26.51;100.00;95727.28;4990753;28;20058;-51
2022/06/20 06:11:45;;;;;;;18.13;10.52;;;;;;;26.75;100.00;95730.34;4991319;28;20097;-53
2022/06/20 06:14:17;;;;;;;18.75;10.48;;;;;;;27.41;100.00;95738.66;4989971;28;20620;-50
2022/06/20 06:16:49;;;;;;;22.70;10.63;;;;;;;27.50;100.00;95728.13;4985098;28;20073;-56
2022/06/20 06:19:27;;;;;;;20.52;10.07;;;;;;;27.38;100.00;95733.78;4985906;28;20074;-53
2022/06/20 06:21:59;;;;;;;17.15;9.68;;;;;;;26.87;100.00;95736.34;4990430;28;20100;-47
2022/06/20 06:24:34;;;;;;;17.08;9.73;;;;;;;27.23;100.00;95746.50;4990277;28;20078;-55
2022/06/20 06:27:05;;;;;;;18.58;9.70;;;;;;;27.25;100.00;95749.72;4990571;28;20092;-54
2022/06/20 06:29:38;;;;;;;22.45;10.43;;;;;;;27.49;100.00;95748.16;4990254;28;20096;-47
2022/06/20 06:32:14;;;;;;;20.38;9.93;;;;;;;27.56;100.00;95754.09;4990031;28;20046;-51
2022/06/20 06:34:49;;;;;;;17.85;10.05;;;;;;;27.43;100.00;95763.59;4981117;28;20069;-47
2022/06/20 06:37:20;;;;;;;17.70;9.70;;;;;;;27.44;100.00;95772.53;4990511;28;20074;-59
2022/06/20 06:39:52;;;;;;;23.20;10.75;;;;;;;27.69;100.00;95771.72;4990230;28;20073;-53
2022/06/20 06:42:21;;;;;;;22.42;9.98;;;;;;;27.63;100.00;95770.94;4989667;28;20470;-52
2022/06/20 06:44:51;;;;;;;21.42;9.23;;;;;;;27.40;100.00;95766.84;4988460;28;20082;-48
2022/06/20 06:47:24;;;;;;;17.70;8.27;;;;;;;27.83;100.00;95766.63;4990247;28;20553;-53
2022/06/20 06:49:57;;;;;;;20.50;9.10;;;;;;;27.83;100.00;95772.03;4990025;28;20074;-48
2022/06/20 06:52:29;;;;;;;15.52;8.50;;;;;;;28.58;100.00;95783.09;4989800;28;20066;-46
2022/06/20 06:55:24;;;;;;;16.88;8.93;;;;;;;28.12;100.00;95791.28;4989776;28;20069;-52
2022/06/20 06:57:56;;;;;;;19.50;8.98;;;;;;;28.85;100.00;95793.59;4984044;28;20078;-45
2022/06/20 07:00:28;;;;;;;16.90;9.07;;;;;;;29.26;100.00;95791.53;4989613;28;20065;-49
2022/06/20 07:02:58;;;;;;;19.35;9.15;;;;;;;28.94;100.00;95789.22;4989441;28;20097;-46
2022/06/20 07:05:33;;;;;;;16.02;8.98;;;;;;;29.15;100.00;95809.00;4990479;28;20093;-49
2022/06/20 07:08:04;;;;;;;21.80;9.20;;;;;;;28.95;100.00;95814.47;4989472;28;20718;-54
2022/06/20 07:10:39;;;;;;;19.55;8.63;;;;;;;28.67;100.00;95814.00;4989710;28;20089;-52
2022/06/20 07:13:19;;;;;;;17.38;8.70;;;;;;;29.08;100.00;95819.34;4989603;28;20477;-49
2022/06/20 07:15:49;;;;;;;20.10;8.43;;;;;;;29.05;100.00;95828.84;4990059;28;20152;-51
2022/06/20 07:18:39;;;;;;;15.55;8.50;;;;;;;29.22;100.00;95822.28;4989621;28;20069;-52
2022/06/20 07:21:11;;;;;;;15.27;7.88;;;;;;;29.20;100.00;95829.88;4985699;28;20078;-53
2022/06/20 07:23:41;;;;;;;16.02;7.78;;;;;;;28.93;100.00;95827.50;4989184;28;20080;-51
2022/06/20 07:26:11;;;;;;;15.32;7.40;;;;;;;28.88;100.00;95820.19;4989661;28;20069;-55
2022/06/20 07:28:42;;;;;;;;;;;;;;;29.75;100.00;95820.63;4989575;28;20072;-55
2022/06/20 07:31:16;;;;;;;10.10;6.03;;;;;;;29.48;100.00;95822.94;4983750;28;19960;-47
2022/06/20 07:33:48;;;;;;;17.50;6.38;;;;;;;29.69;100.00;95835.34;4988919;28;20069;-52
2022/06/20 07:36:21;;;;;;;15.80;6.43;;;;;;;29.51;100.00;95827.81;4989409;28;20525;-56
2022/06/20 07:38:53;;;;;;;13.90;6.15;;;;;;;29.36;100.00;95826.00;4987489;28;20622;-51
2022/06/20 07:41:25;;;;;;;14.60;6.82;;;;;;;29.54;100.00;95827.25;4985953;28;20078;-46
2022/06/20 07:43:59;;;;;;;13.27;6.43;;;;;;;29.30;100.00;95829.81;4988988;28;20548;-50
2022/06/20 07:46:35;;;;;;;14.40;6.40;;;;;;;29.19;100.00;95836.41;4989336;28;20477;-48
2022/06/20 07:49:08;;;;;;;14.15;6.88;;;;;;;29.66;100.00;95838.59;4989069;28;20081;-49
2022/06/20 07:51:40;;;;;;;12.32;6.53;;;;;;;29.85;100.00;95829.81;4988597;28;20077;-50
2022/06/20 07:54:12;;;;;;;14.85;5.88;;;;;;;29.84;100.00;95839.88;4989051;28;20302;-49
2022/06/20 07:56:45;;;;;;;10.25;6.25;;;;;;;29.80;100.00;95836.91;4989307;28;20070;-47
2022/06/20 07:59:17;;;;;;;13.38;6.30;;;;;;;30.38;100.00;95835.38;4979781;28;20462;-52
2022/06/20 08:01:49;;;;;;;15.85;6.43;;;;;;;30.49;98.82;95837.75;4982994;28;20066;-47
2022/06/20 08:04:21;;;;;;;16.13;6.20;;;;;;;30.76;100.00;95843.75;4979580;28;20065;-49
2022/06/20 08:06:54;;;;;;;19.33;6.53;;;;;;;30.15;100.00;95840.47;4975055;28;20066;-47
2022/06/20 08:09:25;;;;;;;15.55;6.65;;;;;;;30.13;100.00;95866.31;4988489;28;20062;-49
2022/06/20 08:11:57;;;;;;;17.10;6.97;;;;;;;30.27;100.00;95868.13;4989826;28;20092;-49
2022/06/20 08:14:31;;;;;;;16.35;6.47;;;;;;;31.04;100.00;95858.41;4993581;28;20082;-47
2022/06/20 08:17:01;;;;;;;14.70;6.63;;;;;;;30.68;99.75;95865.03;4992634;28;20073;-49
2022/06/20 08:19:31;;;;;;;16.02;6.82;;;;;;;30.58;100.00;95865.13;4993267;28;20069;-54
2022/06/20 08:22:05;;;;;;;16.73;7.20;;;;;;;30.79;100.00;95873.13;4992819;28;20062;-53
2022/06/20 08:24:37;;;;;;;12.57;6.40;;;;;;;30.15;96.64;95888.59;4992728;28;20069;-51
2022/06/20 08:27:08;;;;;;;11.00;6.25;;;;;;;29.83;98.42;95889.88;4991415;28;20074;-49
2022/06/20 08:29:39;;;;;;;15.70;6.72;;;;;;;30.39;100.00;95888.72;4987394;28;20097;-54
2022/06/20 08:32:14;;;;;;;12.57;6.63;;;;;;;30.25;100.00;95892.09;4992751;28;20066;-51
2022/06/20 08:34:47;;;;;;;16.70;6.85;;;;;;;30.35;100.00;95901.25;4990677;28;20721;-47
2022/06/20 08:37:22;;;;;;;14.38;6.70;;;;;;;29.95;99.71;95889.56;4992355;28;20521;-55
2022/06/20 08:39:55;;;;;;;18.27;7.43;;;;;;;29.80;100.00;95902.16;4992377;28;20645;-55
2022/06/20 08:43:02;;;;;;;17.15;7.00;;;;;;;29.66;100.00;95892.97;4992141;28;20066;-48
2022/06/20 08:46:00;;;;;;;10.95;6.43;;;;;;;30.45;99.95;95899.25;4969974;28;20624;-53
2022/06/20 08:48:50;;;;;;;12.55;6.60;;;;;;;30.16;95.78;95896.47;4969857;28;20485;-52
2022/06/20 08:52:08;;;;;;;14.98;7.38;;;;;;;30.31;99.91;95903.72;4984445;28;20085;-48
2022/06/20 08:54:58;;;;;;;20.48;7.53;;;;;;;31.30;95.99;95897.91;4981572;28;20073;-50
2022/06/20 08:57:35;;;;;;;15.45;7.57;;;;;;;31.31;95.40;95894.06;4992500;28;20078;-53
2022/06/20 09:00:29;;;;;;;15.90;7.03;;;;;;;31.25;90.08;95894.41;4987776;28;20034;-43
2022/06/20 09:03:24;;;;;;;16.95;6.97;;;;;;;31.18;86.42;95886.63;4991141;28;20081;-46
2022/06/20 09:06:08;;;;;;;14.65;6.82;;;;;;;31.71;88.34;95893.88;4991194;28;20085;-53
2022/06/20 09:08:47;;;;;;;16.10;7.03;;;;;;;31.50;88.88;95888.69;4992213;28;20082;-54
2022/06/20 09:11:27;;;;;;;15.00;7.22;;;;;;;31.43;88.95;95897.22;4989418;28;20066;-50
2022/06/20 09:14:16;;;;;;;14.05;7.13;;;;;;;31.44;85.11;95906.22;4993036;28;20088;-51
2022/06/20 09:16:51;;;;;;;11.68;6.55;;;;;;;30.91;78.13;95901.59;4988872;28;20062;-53
2022/06/20 09:19:31;;;;;;;13.75;6.65;;;;;;;31.52;89.47;95907.47;4991748;28;20066;-52
2022/06/20 09:22:09;;;;;;;11.63;6.60;;;;;;;31.41;88.11;95901.34;4991103;28;20053;-57
2022/06/20 09:24:49;;;;;;;10.65;6.75;;;;;;;31.23;86.92;95905.59;4985357;28;20130;-48
2022/06/20 09:27:30;;;;;;;13.25;6.40;;;;;;;30.58;79.90;95902.44;4987759;28;20071;-52
2022/06/20 09:30:06;;;;;;;12.32;6.55;;;;;;;30.88;83.81;95895.91;4991101;28;20081;-56
2022/06/20 09:33:16;;;;;;;15.40;6.93;;;;;;;31.32;88.76;95889.47;4992130;28;20081;-52
2022/06/20 09:36:08;;;;;;;13.68;6.85;;;;;;;31.76;93.02;95886.44;4946870;28;21525;-56
2022/06/20 09:38:48;;;;;;;15.50;6.97;;;;;;;31.65;77.53;95882.22;4992247;28;20085;-55
2022/06/20 09:41:23;;;;;;;14.30;6.65;;;;;;;32.32;95.41;95887.56;4986109;28;20476;-52
2022/06/20 09:44:02;;;;;;;13.23;6.60;;;;;;;32.32;73.33;95882.91;4990892;28;20102;-54
2022/06/20 09:46:37;;;;;;;12.18;6.70;;;;;;;32.17;91.90;95874.16;4991018;28;20129;-54
2022/06/20 09:49:20;;;;;;;15.30;7.13;;;;;;;32.52;77.02;95876.34;4990680;28;20070;-47
2022/06/20 09:51:54;;;;;;;13.30;6.95;;;;;;;32.80;79.30;95869.03;4990923;28;20101;-55
2022/06/20 09:54:27;;;;;;;11.10;5.75;;;;;;;32.09;72.61;95868.25;4990728;28;20073;-53
2022/06/20 09:57:01;;;;;;;12.55;6.75;;;;;;;32.47;70.48;95873.69;4986585;28;20086;-48
2022/06/20 09:59:36;;;;;;;15.82;6.72;;;;;;;32.22;67.88;95877.63;4991589;28;20074;-50
2022/06/20 10:02:14;;;;;;;11.10;6.18;;;;;;;32.07;68.10;95884.13;4990975;28;20108;-51
2022/06/20 10:04:48;;;;;;;12.85;5.55;;;;;;;31.78;65.96;95878.78;4990994;28;20074;-46
2022/06/20 10:07:34;;;;;;;;;;;;;;;31.35;66.56;95878.81;4986739;28;20062;-53
2022/06/20 10:10:09;;;;;;;12.82;5.63;;;;;;;31.98;68.21;95879.63;4990728;28;20636;-45
2022/06/20 10:12:43;;;;;;;9.75;5.38;;;;;;;31.76;65.67;95874.72;4990404;28;20077;-48
2022/06/20 10:15:23;;;;;;;12.73;5.60;;;;;;;31.66;67.57;95881.16;4990454;28;20074;-52
2022/06/20 10:18:03;;;;;;;11.20;5.32;;;;;;;31.49;65.16;95878.06;4985158;28;20086;-54
2022/06/20 10:20:38;;;;;;;11.85;5.60;;;;;;;32.26;76.27;95873.19;4981826;28;20074;-50
2022/06/20 10:23:18;;;;;;;12.32;5.25;;;;;;;32.00;67.77;95875.47;4988936;28;20080;-48
2022/06/20 10:26:10;;;;;;;14.15;5.22;;;;;;;32.43;69.82;95878.13;4988642;28;20512;-50
2022/06/20 10:28:45;;;;;;;8.82;5.05;;;;;;;32.11;72.01;95873.44;4990256;28;20575;-52
2022/06/20 10:31:37;;;;;;;7.75;4.80;;;;;;;31.31;67.80;95863.28;4988521;28;20065;-53
2022/06/20 10:34:10;;;;;;;10.43;5.45;;;;;;;31.91;71.26;95856.25;4990664;28;20450;-51
2022/06/20 10:36:52;;;;;;;11.90;5.82;;;;;;;31.59;73.39;95864.31;4989109;28;20069;-50
2022/06/20 10:39:45;;;;;;;13.85;5.70;;;;;;;32.33;78.26;95862.69;4990275;28;20089;-52
2022/06/20 10:42:25;;;;;;;12.82;5.40;;;;;;;31.75;66.92;95862.19;4986663;28;20414;-51
2022/06/20 10:45:08;;;;;;;10.20;5.35;;;;;;;32.29;67.48;95858.94;4990283;28;20074;-57
2022/06/20 10:47:43;;;;;;;13.75;6.07;;;;;;;32.87;68.25;95854.97;4984733;28;20108;-57
2022/06/20 10:50:25;;;;;;;9.50;5.25;;;;;;;32.58;67.50;95857.94;4970420;28;20098;-52
2022/06/20 10:53:08;;;;;;;9.75;5.35;;;;;;;32.95;61.10;95858.91;4981914;28;20073;-53
2022/06/20 10:55:44;;;;;;;15.45;5.60;;;;;;;32.38;61.78;95856.34;4984418;28;20062;-50
2022/06/20 10:58:34;;;;;;;10.55;5.60;;;;;;;32.60;61.59;95848.34;4990008;28;20444;-48
2022/06/20 11:01:08;;;;;;;11.52;5.45;;;;;;;32.23;70.45;95860.13;4989595;28;20066;-45
2022/06/20 11:03:56;;;;;;;12.00;4.95;;;;;;;32.32;62.45;95846.63;4989513;28;20073;-54
2022/06/20 11:06:34;;;;;;;10.02;4.90;;;;;;;32.92;62.53;95843.94;4989751;28;20062;-49
2022/06/20 11:09:08;;;;;;;10.70;5.15;;;;;;;32.46;60.47;95839.31;4989822;28;20092;-48
2022/06/20 11:11:42;;;;;;;10.85;4.82;;;;;;;31.96;63.44;95849.09;4990049;28;20078;-49
2022/06/20 11:14:18;;;;;;;11.63;5.47;;;;;;;32.69;63.01;95844.91;4989187;28;20093;-47
2022/06/20 11:16:51;;;;;;;9.25;4.95;;;;;;;32.07;63.36;95851.41;4988209;28;20571;-51
2022/06/20 11:19:30;;;;;;;7.68;5.03;;;;;;;31.74;61.79;95846.94;4989430;28;20611;-53
2022/06/20 11:22:19;;;;;;;11.63;5.10;;;;;;;32.09;73.94;95849.16;4988927;28;20066;-43
2022/06/20 11:24:52;;;;;;;9.82;5.13;;;;;;;31.48;63.69;95862.84;4985494;28;20105;-46
2022/06/20 11:27:34;;;;;;;10.18;5.18;;;;;;;32.01;70.95;95844.41;4989322;28;20076;-49
2022/06/20 11:30:08;;;;;;;8.15;5.03;;;;;;;31.82;66.12;95841.63;4991532;28;20503;-51
2022/06/20 11:32:43;;;;;;;7.75;4.93;;;;;;;31.70;66.22;95835.81;4991009;28;20536;-50
2022/06/20 11:35:25;;;;;;;10.90;4.88;;;;;;;31.59;61.83;95829.72;4989572;28;20066;-51
2022/06/20 11:38:15;;;;;;;10.68;4.90;;;;;;;31.68;58.67;95840.75;4984812;28;20066;-47
2022/06/20 11:40:50;;;;;;;12.88;4.70;;;;;;;31.35;56.67;95834.38;4989280;28;20505;-49
2022/06/20 11:43:55;;;;;;;10.88;5.15;;;;;;;32.06;58.26;95846.22;4988961;28;20074;-44
2022/06/20 11:46:42;;;;;;;12.00;4.93;;;;;;;31.75;58.59;95833.00;4987902;28;20062;-52
2022/06/20 11:49:17;;;;;;;8.50;5.07;;;;;;;31.93;62.63;95839.59;4983423;28;20085;-55
2022/06/20 11:51:54;;;;;;;11.10;5.10;;;;;;;32.44;66.66;95836.06;4988867;28;20076;-55
2022/06/20 11:54:31;;;;;;;10.38;4.78;;;;;;;32.05;60.01;95839.16;4989189;28;20058;-50
2022/06/20 11:57:03;;;;;;;9.05;4.82;;;;;;;32.63;63.54;95832.47;4987861;28;20088;-55
2022/06/20 11:59:39;;;;;;;8.20;4.97;;;;;;;32.39;66.19;95836.13;4989471;28;20090;-54
2022/06/20 12:02:19;;;;;;;11.05;4.90;;;;;;;32.07;56.79;95834.19;4989142;28;20061;-55